This is the latest recevied weather packets stored in our database for station/object CrvULibav. If no packets are shown the sender has not sent any weather packets the latest 1 day(s).
| Time | Temp. | Humidity | Pressure | Rain* | Wind** | Luminosity | Snow |
|---|---|---|---|---|---|---|---|
| 1778030562 | 11.11° C | 71% | - | - | 7.15 m/s, 190° | - | - |
| 1778026899 | 11.11° C | 71% | - | - | 7.15 m/s, 180° | - | - |
| 1778023298 | 12.22° C | 66% | - | - | 7.15 m/s, 180° | - | - |
| 1778019699 | 12.22° C | 62% | - | - | 8.05 m/s, 180° | - | - |
| 1778016148 | 12.78° C | 54% | - | - | 8.05 m/s, 170° | - | - |
| 1778012514 | 13.89° C | 50% | - | - | 7.15 m/s, 180° | - | - |
| 1778008932 | 16.11° C | 44% | - | - | 9.83 m/s, 180° | - | - |
| 1778005315 | 17.78° C | 39% | - | - | 8.05 m/s, 170° | - | - |
| 1778001731 | 18.89° C | 37% | - | - | 7.15 m/s, 170° | - | - |
| 1777998207 | 20° C | 34% | - | - | 8.05 m/s, 180° | - | - |
| 1777994515 | 21.11° C | 22% | - | - | 8.05 m/s, 190° | - | - |
| 1777990914 | 21.11° C | 21% | - | - | 9.83 m/s, 200° | - | - |
| 1777987301 | 22.22° C | 23% | - | - | 9.83 m/s, 180° | - | - |
| 1777983700 | 21.11° C | 26% | - | - | 8.05 m/s, 180° | - | - |
| 1777980101 | 20° C | 30% | - | - | 8.94 m/s, 170° | - | - |
| 1777976501 | 17.78° C | 34% | - | - | 8.05 m/s, 190° | - | - |
| 1777972899 | 17.78° C | 34% | - | - | 8.05 m/s, 180° | - | - |
| 1777969301 | 17.22° C | 31% | - | - | 7.15 m/s, 170° | - | - |
| 1777965701 | 16.11° C | 33% | - | - | 7.15 m/s, 170° | - | - |
| 1777962101 | 15° C | 38% | - | - | 6.26 m/s, 170° | - | - |
| 1777958498 | 12.78° C | 40% | - | - | 7.15 m/s, 170° | - | - |
| 1777954899 | 12.78° C | 37% | - | - | 6.26 m/s, 160° | - | - |
| 1777951299 | 12.78° C | 37% | - | - | 7.15 m/s, 160° | - | - |
| 1777947699 | 12.78° C | 37% | - | - | 6.26 m/s, 160° | - | - |
* Rain since midnight (hover to see other rain measurements)
** Current wind speed in m/s (hover to see current wind gust speed)